createdAt,value
2019-04-20T00:01:34.064Z,10.60
2019-04-20T00:06:51.362Z,13.43
2019-04-20T00:12:08.946Z,9.70
2019-04-20T00:17:28.633Z,9.53
2019-04-20T00:22:59.726Z,10.60
2019-04-20T00:28:33.367Z,9.37
2019-04-20T00:33:41.058Z,13.80
2019-04-20T00:38:56.965Z,10.90
2019-04-20T00:44:07.999Z,9.33
2019-04-20T00:49:30.614Z,8.50
2019-04-20T00:55:29.309Z,8.27
2019-04-20T01:00:22.890Z,9.90
2019-04-20T01:05:43.706Z,10.87
2019-04-20T01:10:47.270Z,9.07
2019-04-20T01:16:21.756Z,8.50
2019-04-20T01:21:49.865Z,9.55
2019-04-20T01:27:02.490Z,11.43
2019-04-20T01:32:52.593Z,8.67
2019-04-20T01:38:00.185Z,10.40
2019-04-20T01:42:59.541Z,10.40
2019-04-20T01:48:20.548Z,9.10
2019-04-20T01:54:02.197Z,8.37
2019-04-20T01:59:47.011Z,8.53
2019-04-20T02:05:24.702Z,11.63
2019-04-20T02:10:49.054Z,8.10
2019-04-20T02:16:15.777Z,9.57
2019-04-20T02:21:40.882Z,9.43
2019-04-20T02:26:38.888Z,8.30
2019-04-20T02:32:32.210Z,8.93
2019-04-20T02:38:11.301Z,9.10
2019-04-20T02:43:28.444Z,7.93
2019-04-20T02:48:35.692Z,9.63
2019-04-20T02:54:18.768Z,9.83
2019-04-20T02:59:55.769Z,11.27
2019-04-20T03:04:28.962Z,10.13
2019-04-20T03:10:08.370Z,10.60
2019-04-20T03:15:40.131Z,10.10
2019-04-20T03:21:04.493Z,12.53
2019-04-20T03:27:30.609Z,10.73
2019-04-20T03:31:56.222Z,10.50
2019-04-20T03:42:20.154Z,10.40
2019-04-20T03:47:56.146Z,10.83
2019-04-20T03:53:28.570Z,10.63
2019-04-20T03:58:55.553Z,10.30
2019-04-20T04:04:38.835Z,10.73
2019-04-20T04:10:02.466Z,10.87
2019-04-20T04:15:08.566Z,10.90
2019-04-20T04:20:15.009Z,10.30
2019-04-20T04:26:45.605Z,12.93
2019-04-20T04:31:23.248Z,11.97
2019-04-20T04:36:44.511Z,10.93
2019-04-20T04:42:11.648Z,12.53
2019-04-20T04:47:11.944Z,11.83
2019-04-20T04:52:39.849Z,12.17
2019-04-20T04:57:58.242Z,11.90
2019-04-20T05:05:19.288Z,12.23
2019-04-20T05:14:27.086Z,11.30
2019-04-20T05:20:10.620Z,12.37
2019-04-20T05:26:58.304Z,12.17
2019-04-20T05:30:59.242Z,12.10
2019-04-20T05:36:41.498Z,13.03
2019-04-20T05:41:51.508Z,13.37
2019-04-20T05:47:21.778Z,12.03
2019-04-20T05:57:56.639Z,11.43
2019-04-20T06:03:06.002Z,12.50
2019-04-20T06:21:53.032Z,13.70
2019-04-20T06:27:29.293Z,12.47
2019-04-20T06:33:12.848Z,14.40
2019-04-20T06:38:36.542Z,13.43
2019-04-20T06:43:36.453Z,13.73
2019-04-20T06:49:05.353Z,12.90
2019-04-20T06:53:52.678Z,12.17
2019-04-20T06:59:20.040Z,11.60
2019-04-20T07:04:45.332Z,13.67
2019-04-20T07:14:49.635Z,13.50
2019-04-20T07:20:12.891Z,12.33
2019-04-20T07:25:34.519Z,12.53
2019-04-20T07:30:45.123Z,14.55
2019-04-20T07:35:50.846Z,13.23
2019-04-20T07:41:17.044Z,15.80
2019-04-20T07:46:43.890Z,12.60
2019-04-20T07:51:24.976Z,11.77
2019-04-20T07:56:52.130Z,15.73
2019-04-20T08:02:23.523Z,13.08
2019-04-20T08:07:17.512Z,13.05
2019-04-20T08:13:09.278Z,14.00
2019-04-20T08:18:19.424Z,14.07
2019-04-20T08:23:17.244Z,13.50
2019-04-20T08:28:25.250Z,12.95
2019-04-20T08:34:04.825Z,14.10
2019-04-20T08:39:28.196Z,13.78
2019-04-20T08:44:42.851Z,15.58
2019-04-20T08:49:41.318Z,14.47
2019-04-20T08:54:42.287Z,14.10
2019-04-20T09:00:30.910Z,13.40
2019-04-20T09:05:51.198Z,13.32
2019-04-20T09:11:11.963Z,14.18
2019-04-20T09:16:02.117Z,14.98
2019-04-20T09:21:24.338Z,13.98
2019-04-20T09:26:42.949Z,14.58
2019-04-20T09:32:00.768Z,16.57
2019-04-20T09:37:23.723Z,13.63
2019-04-20T09:42:32.236Z,15.95
2019-04-20T09:47:49.900Z,14.47
2019-04-20T09:53:14.180Z,14.15
2019-04-20T09:58:23.203Z,12.30
2019-04-20T10:03:18.450Z,13.83
2019-04-20T10:08:40.311Z,14.10
2019-04-20T10:13:48.389Z,14.93
2019-04-20T10:19:02.798Z,12.95
2019-04-20T10:24:12.552Z,14.20
2019-04-20T10:29:21.681Z,12.73
2019-04-20T10:34:30.564Z,14.90
2019-04-20T10:40:00.616Z,12.00
2019-04-20T10:45:12.866Z,14.50
2019-04-20T10:50:27.164Z,13.03
2019-04-20T10:55:39.729Z,12.93
2019-04-20T11:00:50.237Z,12.50
2019-04-20T11:06:04.813Z,12.95
2019-04-20T11:11:23.175Z,13.50
2019-04-20T11:16:33.942Z,13.47
2019-04-20T11:21:48.224Z,15.45
2019-04-20T11:27:02.311Z,12.28
2019-04-20T11:32:18.334Z,12.43
2019-04-20T11:37:33.150Z,11.03
2019-04-20T11:42:45.704Z,11.33
2019-04-20T11:47:59.093Z,28.15
2019-04-20T11:53:11.294Z,13.47
2019-04-20T11:58:26.423Z,11.95
2019-04-20T12:03:47.869Z,11.83
2019-04-20T12:08:52.651Z,12.53
2019-04-20T12:14:02.968Z,10.90
2019-04-20T12:19:18.645Z,11.50
2019-04-20T12:24:38.149Z,10.20
2019-04-20T12:29:54.159Z,11.88
2019-04-20T12:35:06.479Z,12.18
2019-04-20T12:40:20.250Z,12.43
2019-04-20T12:45:29.867Z,10.70
2019-04-20T12:50:41.595Z,12.23
2019-04-20T12:55:50.750Z,12.20
2019-04-20T13:01:00.582Z,11.03
2019-04-20T13:06:14.516Z,13.30
2019-04-20T13:11:44.381Z,12.80
2019-04-20T13:16:49.899Z,13.18
2019-04-20T13:22:05.158Z,13.17
2019-04-20T13:27:18.701Z,11.65
2019-04-20T13:32:35.998Z,12.75
2019-04-20T13:37:46.967Z,12.60
2019-04-20T13:43:01.680Z,9.70
2019-04-20T13:48:13.130Z,9.85
2019-04-20T13:53:27.503Z,9.58
2019-04-20T13:59:05.814Z,10.23
2019-04-20T14:04:21.088Z,9.68
2019-04-20T14:09:33.224Z,12.15
2019-04-20T14:14:44.713Z,9.78
2019-04-20T14:19:57.281Z,9.10
2019-04-20T14:25:09.164Z,10.20
2019-04-20T14:30:25.032Z,9.53
2019-04-20T14:35:36.913Z,8.45
2019-04-20T14:40:48.275Z,8.50
2019-04-20T14:46:03.167Z,9.30
2019-04-20T14:51:17.327Z,9.55
2019-04-20T14:56:27.376Z,10.90
2019-04-20T15:01:44.925Z,9.25
2019-04-20T15:06:56.781Z,10.68
2019-04-20T15:12:14.949Z,9.38
2019-04-20T15:17:51.366Z,10.27
2019-04-20T15:23:07.542Z,8.63
2019-04-20T15:28:18.642Z,14.27
2019-04-20T15:33:30.883Z,10.95
2019-04-20T15:38:40.981Z,12.03
2019-04-20T15:43:57.383Z,10.72
2019-04-20T15:49:10.853Z,8.40
2019-04-20T15:54:35.669Z,9.50
2019-04-20T15:59:48.599Z,10.50
2019-04-20T16:05:18.627Z,11.00
2019-04-20T16:10:30.912Z,15.10
2019-04-20T16:15:47.627Z,9.73
2019-04-20T16:21:09.220Z,11.08
2019-04-20T16:26:29.662Z,9.53
2019-04-20T16:31:44.040Z,9.85
2019-04-20T16:36:57.814Z,13.50
2019-04-20T16:42:08.613Z,12.05
2019-04-20T16:47:18.558Z,11.50
2019-04-20T16:52:33.195Z,8.95
2019-04-20T16:57:49.253Z,10.38
2019-04-20T17:03:23.963Z,12.78
2019-04-20T17:08:33.231Z,13.28
2019-04-20T17:13:55.344Z,8.90
2019-04-20T17:19:04.134Z,9.45
2019-04-20T17:24:19.619Z,10.65
2019-04-20T17:29:33.681Z,6.95
2019-04-20T17:34:59.917Z,6.97
2019-04-20T17:40:19.201Z,7.28
2019-04-20T17:45:41.971Z,7.72
2019-04-20T17:51:11.118Z,8.37
2019-04-20T17:56:12.145Z,14.53
2019-04-20T18:01:55.480Z,9.85
2019-04-20T18:07:04.330Z,11.00
2019-04-20T18:12:07.623Z,6.55
2019-04-20T18:17:55.066Z,5.34
2019-04-20T18:22:55.533Z,5.65
2019-04-20T18:28:27.550Z,5.50
2019-04-20T18:33:33.505Z,7.47
2019-04-20T18:38:54.051Z,7.17
2019-04-20T18:43:57.579Z,7.37
2019-04-20T18:49:23.786Z,5.33
2019-04-20T18:54:31.659Z,5.27
2019-04-20T18:59:50.479Z,8.20
2019-04-20T19:05:03.579Z,7.70
2019-04-20T19:10:27.546Z,6.10
2019-04-20T19:16:14.995Z,5.35
2019-04-20T19:21:25.007Z,8.43
2019-04-20T19:26:34.539Z,8.33
2019-04-20T19:32:24.972Z,6.55
2019-04-20T19:37:28.400Z,6.17
2019-04-20T19:42:39.560Z,5.57
2019-04-20T19:47:50.246Z,5.20
2019-04-20T19:53:11.149Z,8.40
2019-04-20T19:58:13.390Z,6.03
2019-04-20T20:03:09.985Z,9.80
2019-04-20T20:08:34.779Z,9.03
2019-04-20T20:13:52.176Z,6.37
2019-04-20T20:19:08.128Z,5.97
2019-04-20T20:24:15.733Z,8.55
2019-04-20T20:29:34.152Z,7.83
2019-04-20T20:34:43.429Z,9.43
2019-04-20T20:39:59.509Z,7.62
2019-04-20T20:45:16.131Z,7.35
2019-04-20T20:50:44.445Z,7.57
2019-04-20T20:56:22.517Z,8.83
2019-04-20T21:01:42.559Z,8.05
2019-04-20T21:06:40.638Z,9.27
2019-04-20T21:11:51.975Z,13.23
2019-04-20T21:17:10.265Z,11.67
2019-04-20T21:22:39.991Z,11.63
2019-04-20T21:27:34.932Z,11.83
2019-04-20T21:32:57.289Z,9.53
2019-04-20T21:38:10.284Z,11.23
2019-04-20T21:43:20.637Z,8.23
2019-04-20T21:49:29.107Z,10.37
2019-04-20T21:54:27.802Z,10.37
2019-04-20T21:59:45.523Z,10.37
2019-04-20T22:04:53.528Z,10.37
2019-04-20T22:10:03.268Z,9.20
2019-04-20T22:15:26.295Z,10.70
2019-04-20T22:20:42.475Z,9.83
2019-04-20T22:25:56.803Z,10.30
2019-04-20T22:31:02.489Z,9.70
2019-04-20T22:36:16.369Z,11.87
2019-04-20T22:41:27.853Z,12.03
2019-04-20T22:46:40.997Z,11.97
2019-04-20T22:51:58.636Z,10.37
2019-04-20T22:57:09.388Z,11.43
2019-04-20T23:02:21.153Z,11.07
2019-04-20T23:07:32.898Z,11.87
2019-04-20T23:12:46.913Z,12.57
2019-04-20T23:17:58.004Z,11.50
2019-04-20T23:23:33.865Z,13.07
2019-04-20T23:28:51.965Z,14.20
2019-04-20T23:34:15.398Z,15.77
2019-04-20T23:39:23.324Z,13.23
2019-04-20T23:44:54.556Z,14.17
2019-04-20T23:50:19.190Z,13.93
2019-04-20T23:55:18.698Z,14.87
